Arvin, California
Current Conditions -  °F | °C
As of 5:54 PM on Saturday 25 Oct 2014 (Local Time) from KBFL Reporting Station
Clear Clear  
Wind Chill: 76°   Ceiling: Unl
Heat Index: 76°   Visibility: 10mi
Dew Point: 44°   Wind: 3mph
Humidity: 32%   Direction: 300°WNW
Pressure: 30"   Gusts: NA
Location:  35.21°N, 118.82°W
Report Text: KBFL 260054Z 30003KT 10SM CLR 24/07 A3000 RMK AO2 SLP153 T02440067
Loading
Personal Weather Stations






























Interactive Weather Map
Tropical Storm Tracking
New forecast layout! Learn more

10-Day Weather Forecast

Advertisements
Track Severe Weather on mobile